Time;durP1;ratioP1;P1;durP2;ratioP2;P2;SDS_P1;SDS_P2;PMS_P1;PMS_P2;Temp;Humidity;BMP_temperature;BMP_pressure;BME280_temperature;BME280_humidity;BME280_pressure;Samples;Min_cycle;Max_cycle;Signal;HPM_P1;HPM_P2
2023/06/29 00:00:23;;;;;;;5.95;3.88;;;;;;;18.20;100.00;100826.88;692188;28;1503;-56
2023/06/29 00:00:43;;;;;;;6.53;4.03;;;;;;;18.21;100.00;100826.81;694288;28;1910;-57
2023/06/29 00:01:04;;;;;;;7.63;3.90;;;;;;;18.19;100.00;100823.38;694938;28;1471;-55
2023/06/29 00:01:25;;;;;;;7.18;4.03;;;;;;;18.19;100.00;100822.50;695729;28;4261;-57
2023/06/29 00:01:45;;;;;;;7.20;4.17;;;;;;;18.16;100.00;100825.25;696477;28;987;-55
2023/06/29 00:02:05;;;;;;;6.75;4.32;;;;;;;18.14;100.00;100827.09;692181;28;1484;-56
2023/06/29 00:02:26;;;;;;;7.00;4.30;;;;;;;18.17;100.00;100827.84;692954;28;1258;-57
2023/06/29 00:02:47;;;;;;;7.13;4.43;;;;;;;18.16;100.00;100825.25;690829;28;976;-56
2023/06/29 00:03:11;;;;;;;5.95;4.07;;;;;;;18.15;100.00;100826.16;689569;28;1501;-56
2023/06/29 00:03:31;;;;;;;6.15;3.90;;;;;;;18.14;100.00;100824.44;690553;28;1368;-57
2023/06/29 00:03:52;;;;;;;7.03;4.13;;;;;;;18.12;100.00;100826.28;690578;28;999;-55
2023/06/29 00:04:16;;;;;;;6.63;4.13;;;;;;;18.11;100.00;100819.25;691795;28;4550;-57
2023/06/29 00:04:36;;;;;;;7.88;4.43;;;;;;;18.10;100.00;100825.47;694349;28;983;-53
2023/06/29 00:04:57;;;;;;;7.83;4.10;;;;;;;18.11;100.00;100819.25;696541;28;856;-55
2023/06/29 00:05:21;;;;;;;7.03;4.00;;;;;;;18.11;100.00;100830.72;695137;28;1116;-54
2023/06/29 00:05:41;;;;;;;6.43;4.00;;;;;;;18.10;100.00;100825.47;696090;28;1310;-56
2023/06/29 00:06:02;;;;;;;6.57;4.10;;;;;;;18.07;100.00;100823.78;694727;28;2598;-56
2023/06/29 00:06:23;;;;;;;8.25;4.10;;;;;;;18.07;100.00;100829.09;696032;28;889;-57
2023/06/29 00:06:43;;;;;;;7.70;4.30;;;;;;;18.06;100.00;100829.13;696650;28;781;-56
2023/06/29 00:07:03;;;;;;;7.18;4.07;;;;;;;18.06;100.00;100821.19;695511;28;1791;-56
2023/06/29 00:07:26;;;;;;;7.67;4.10;;;;;;;18.02;100.00;100823.91;695352;28;4332;-56
2023/06/29 00:07:48;;;;;;;7.38;4.15;;;;;;;18.03;100.00;100820.38;696373;28;983;-55
2023/06/29 00:08:08;;;;;;;7.45;4.30;;;;;;;18.04;100.00;100826.50;695258;28;1735;-56
2023/06/29 00:08:40;;;;;;;6.90;4.07;;;;;;;18.03;100.00;100825.66;696318;28;852;-56
2023/06/29 00:09:00;;;;;;;7.03;4.00;;;;;;;18.02;100.00;100826.56;696169;28;1314;-54
2023/06/29 00:09:22;;;;;;;8.68;4.60;;;;;;;18.01;100.00;100827.50;695380;28;1479;-55
2023/06/29 00:09:43;;;;;;;8.00;4.32;;;;;;;18.01;100.00;100822.22;694816;28;916;-56
2023/06/29 00:10:04;;;;;;;8.45;4.55;;;;;;;18.00;100.00;100831.06;695589;28;970;-57
2023/06/29 00:10:25;;;;;;;7.88;4.38;;;;;;;18.02;100.00;100828.34;695755;28;4682;-55
2023/06/29 00:10:45;;;;;;;7.53;4.20;;;;;;;18.02;100.00;100828.34;696094;28;1038;-57
2023/06/29 00:11:07;;;;;;;7.13;4.03;;;;;;;18.02;100.00;100828.34;690774;28;872;-57
2023/06/29 00:11:28;;;;;;;7.60;4.40;;;;;;;18.02;100.00;100823.91;691890;28;865;-57
2023/06/29 00:11:48;;;;;;;7.22;4.25;;;;;;;18.02;100.00;100823.91;691074;28;987;-56
2023/06/29 00:12:09;;;;;;;7.30;4.40;;;;;;;18.03;100.00;100827.44;691105;28;1691;-56
2023/06/29 00:12:29;;;;;;;7.63;4.25;;;;;;;18.03;100.00;100830.09;692181;28;876;-53
2023/06/29 00:12:50;;;;;;;7.77;4.00;;;;;;;18.02;100.00;100829.22;692100;28;1365;-55
2023/06/29 00:13:10;;;;;;;7.57;4.07;;;;;;;18.03;100.00;100830.09;694631;28;4881;-55
2023/06/29 00:13:30;;;;;;;6.90;4.13;;;;;;;18.02;100.00;100826.56;696506;28;1407;-57
2023/06/29 00:13:51;;;;;;;6.53;4.13;;;;;;;18.01;100.00;100827.50;695720;28;1496;-56
2023/06/29 00:14:11;;;;;;;6.67;4.03;;;;;;;18.01;100.00;100826.63;695484;28;1609;-54
2023/06/29 00:14:31;;;;;;;6.93;4.43;;;;;;;18.02;100.00;100823.91;693041;28;1301;-55
2023/06/29 00:14:52;;;;;;;6.70;4.35;;;;;;;18.01;100.00;100827.50;693228;28;963;-56
2023/06/29 00:15:12;;;;;;;7.83;4.30;;;;;;;18.00;100.00;100825.78;692577;28;1199;-56
2023/06/29 00:15:32;;;;;;;7.37;4.13;;;;;;;17.99;100.00;100824.03;693693;28;853;-56
2023/06/29 00:15:53;;;;;;;8.07;4.30;;;;;;;18.00;100.00;100825.78;692345;28;944;-56
2023/06/29 00:16:13;;;;;;;7.67;4.17;;;;;;;17.99;100.00;100824.03;691777;28;4424;-54
2023/06/29 00:16:35;;;;;;;8.23;4.40;;;;;;;18.00;100.00;100823.13;696342;28;822;-56
2023/06/29 00:16:55;;;;;;;8.02;4.38;;;;;;;17.99;100.00;100820.53;695929;28;1416;-56
2023/06/29 00:17:16;;;;;;;7.93;4.30;;;;;;;18.00;100.00;100830.22;695662;28;1661;-56
2023/06/29 00:17:37;;;;;;;7.87;4.00;;;;;;;18.01;100.00;100822.22;696602;28;953;-55
2023/06/29 00:17:57;;;;;;;7.33;4.00;;;;;;;18.03;100.00;100819.53;695670;28;1110;-56
2023/06/29 00:18:18;;;;;;;6.70;4.00;;;;;;;18.01;100.00;100819.56;694995;28;1586;-57
2023/06/29 00:18:39;;;;;;;7.00;4.15;;;;;;;18.01;100.00;100816.94;696089;28;1509;-56
2023/06/29 00:19:01;;;;;;;6.77;4.30;;;;;;;18.01;100.00;100824.88;696141;28;960;-56
2023/06/29 00:19:21;;;;;;;8.02;4.30;;;;;;;18.00;100.00;100820.47;692182;28;4575;-57
2023/06/29 00:19:42;;;;;;;7.47;4.07;;;;;;;17.99;100.00;100818.75;693016;28;939;-56
2023/06/29 00:20:03;;;;;;;6.53;3.80;;;;;;;18.00;100.00;100822.28;691498;28;1473;-55
2023/06/29 00:20:28;;;;;;;6.25;4.20;;;;;;;18.00;100.00;100817.84;693015;28;901;-56
2023/06/29 00:20:51;;;;;;;6.25;4.00;;;;;;;17.99;100.00;100824.03;693591;28;1977;-54
2023/06/29 00:21:11;;;;;;;7.50;4.38;;;;;;;17.98;100.00;100816.16;693141;28;1548;-56
2023/06/29 00:21:32;;;;;;;6.30;3.90;;;;;;;18.02;100.00;100817.78;696484;28;868;-56
2023/06/29 00:21:52;;;;;;;7.87;4.13;;;;;;;18.01;100.00;100822.22;695998;28;1381;-57
2023/06/29 00:22:18;;;;;;;7.63;4.13;;;;;;;18.00;100.00;100823.13;694144;28;4451;-55
2023/06/29 00:22:40;;;;;;;7.28;4.20;;;;;;;18.00;100.00;100817.84;696464;28;869;-56
2023/06/29 00:23:00;;;;;;;7.00;4.00;;;;;;;17.99;100.00;100821.38;696326;28;870;-56
2023/06/29 00:23:20;;;;;;;6.82;4.40;;;;;;;17.98;100.00;100814.34;694828;28;1551;-54
2023/06/29 00:23:41;;;;;;;8.80;4.33;;;;;;;17.98;100.00;100819.66;696446;28;1077;-56
2023/06/29 00:24:02;;;;;;;8.10;4.20;;;;;;;17.98;100.00;100817.00;696084;28;939;-56
2023/06/29 00:24:23;;;;;;;7.32;4.45;;;;;;;17.97;100.00;100822.34;694870;28;851;-54
2023/06/29 00:24:43;;;;;;;7.00;4.40;;;;;;;17.97;100.00;100820.59;696601;28;777;-56
2023/06/29 00:25:04;;;;;;;6.57;4.43;;;;;;;17.97;100.00;100820.59;695332;28;1465;-55
2023/06/29 00:25:24;;;;;;;6.70;4.32;;;;;;;17.97;100.00;100819.69;695550;28;4375;-57
2023/06/29 00:25:46;;;;;;;6.97;4.10;;;;;;;17.97;100.00;100819.69;696471;28;773;-57
2023/06/29 00:26:07;;;;;;;7.72;4.28;;;;;;;17.95;100.00;100819.75;694486;28;1456;-56
2023/06/29 00:26:28;;;;;;;8.00;4.50;;;;;;;17.95;100.00;100817.13;695944;28;935;-56
2023/06/29 00:26:49;;;;;;;6.40;3.63;;;;;;;17.96;100.00;100816.19;695678;28;1066;-56
2023/06/29 00:27:13;;;;;;;6.43;3.60;;;;;;;17.97;100.00;100817.94;694831;28;1557;-54
2023/06/29 00:27:33;;;;;;;7.25;4.00;;;;;;;17.97;100.00;100819.69;692625;28;884;-56
2023/06/29 00:27:54;;;;;;;6.50;3.93;;;;;;;17.96;100.00;100816.19;690831;28;1128;-56
2023/06/29 00:28:14;;;;;;;7.20;4.10;;;;;;;17.94;100.00;100814.53;686144;28;4325;-56
2023/06/29 00:28:35;;;;;;;7.27;4.30;;;;;;;17.93;100.00;100820.72;687409;28;1550;-56
2023/06/29 00:28:56;;;;;;;6.50;4.20;;;;;;;17.93;100.00;100813.66;688077;28;1354;-55
2023/06/29 00:29:17;;;;;;;6.63;4.07;;;;;;;17.92;100.00;100814.56;687077;28;1705;-56
2023/06/29 00:29:40;;;;;;;7.47;3.90;;;;;;;17.93;100.00;100811.03;688041;28;893;-56
2023/06/29 00:30:00;;;;;;;7.68;3.88;;;;;;;17.93;100.00;100811.03;687769;28;1520;-56
2023/06/29 00:30:21;;;;;;;8.00;4.27;;;;;;;17.92;100.00;100817.22;686793;28;1051;-56
2023/06/29 00:30:41;;;;;;;6.55;4.03;;;;;;;17.93;100.00;100813.66;688391;28;956;-56
2023/06/29 00:31:02;;;;;;;6.80;3.93;;;;;;;17.91;100.00;100818.13;691247;28;977;-57
2023/06/29 00:31:24;;;;;;;6.88;4.63;;;;;;;17.92;100.00;100816.38;691409;28;4558;-56
2023/06/29 00:31:45;;;;;;;7.63;4.40;;;;;;;17.92;100.00;100811.94;690942;28;1592;-54
2023/06/29 00:32:05;;;;;;;6.63;4.37;;;;;;;17.92;100.00;100814.56;692181;28;1485;-56
2023/06/29 00:32:26;;;;;;;7.30;4.22;;;;;;;17.91;100.00;100810.19;693163;28;1221;-56
2023/06/29 00:32:47;;;;;;;7.27;3.90;;;;;;;17.91;100.00;100810.19;693178;28;1160;-56
2023/06/29 00:33:07;;;;;;;6.43;4.07;;;;;;;17.91;100.00;100812.84;692464;28;1472;-60
2023/06/29 00:33:29;;;;;;;5.82;3.90;;;;;;;17.91;100.00;100810.19;693742;28;830;-57
2023/06/29 00:33:51;;;;;;;7.07;4.10;;;;;;;17.90;100.00;100808.44;694446;28;1294;-56
2023/06/29 00:34:11;;;;;;;7.18;3.83;;;;;;;17.90;100.00;100811.06;690139;28;4605;-55
2023/06/29 00:34:31;;;;;;;8.63;4.20;;;;;;;17.91;100.00;100811.97;691202;28;1386;-56
2023/06/29 00:34:54;;;;;;;8.88;4.72;;;;;;;17.91;100.00;100809.31;687636;28;1412;-56
2023/06/29 00:35:14;;;;;;;8.30;4.60;;;;;;;17.90;100.00;100803.13;684780;28;1570;-54
2023/06/29 00:35:35;;;;;;;7.30;4.15;;;;;;;17.90;100.00;100816.34;686666;28;1008;-56
2023/06/29 00:35:55;;;;;;;8.10;4.10;;;;;;;17.91;100.00;100809.31;688853;28;833;-56
2023/06/29 00:36:16;;;;;;;6.72;4.05;;;;;;;17.92;100.00;100813.72;688431;28;1529;-56
2023/06/29 00:36:36;;;;;;;7.95;4.05;;;;;;;17.93;100.00;100807.50;686040;28;860;-56
2023/06/29 00:36:57;;;;;;;8.37;4.23;;;;;;;17.93;100.00;100811.03;689229;28;793;-55
2023/06/29 00:37:17;;;;;;;7.53;4.20;;;;;;;17.92;100.00;100811.94;686424;28;4402;-57
2023/06/29 00:37:37;;;;;;;7.15;4.18;;;;;;;17.94;100.00;100812.72;685201;28;1176;-55
2023/06/29 00:37:58;;;;;;;6.90;4.30;;;;;;;17.92;100.00;100806.63;684806;28;1434;-56
2023/06/29 00:38:18;;;;;;;7.07;4.53;;;;;;;17.92;100.00;100805.78;686852;28;1561;-57
2023/06/29 00:38:39;;;;;;;7.20;4.40;;;;;;;17.92;100.00;100803.16;690095;28;2149;-56
2023/06/29 00:38:59;;;;;;;6.40;4.18;;;;;;;17.92;100.00;100808.44;690451;28;1202;-57
2023/06/29 00:39:19;;;;;;;6.97;4.30;;;;;;;17.91;100.00;100799.63;689607;28;1598;-56
2023/06/29 00:39:40;;;;;;;6.73;4.50;;;;;;;17.92;100.00;100806.63;693069;28;1343;-55
2023/06/29 00:40:01;;;;;;;7.50;4.40;;;;;;;17.92;100.00;100806.63;691748;28;1149;-55
2023/06/29 00:40:21;;;;;;;6.95;4.10;;;;;;;17.92;100.00;100806.63;691652;28;4437;-56
2023/06/29 00:40:41;;;;;;;8.50;4.27;;;;;;;17.92;100.00;100801.34;693169;28;1197;-55
2023/06/29 00:41:02;;;;;;;7.77;4.40;;;;;;;17.92;100.00;100805.78;689949;28;1922;-57
2023/06/29 00:41:22;;;;;;;7.90;5.03;;;;;;;17.90;100.00;100797.00;692397;28;821;-54
2023/06/29 00:41:43;;;;;;;7.27;4.80;;;;;;;17.91;100.00;100804.91;690886;28;939;-56
2023/06/29 00:42:03;;;;;;;6.70;4.50;;;;;;;17.92;100.00;100801.34;685828;28;1457;-55
2023/06/29 00:42:24;;;;;;;7.67;4.23;;;;;;;17.91;100.00;100799.63;686111;28;5595;-56
2023/06/29 00:42:44;;;;;;;7.93;4.23;;;;;;;17.93;100.00;100799.56;685830;28;1426;-55
2023/06/29 00:43:05;;;;;;;7.23;4.30;;;;;;;17.92;100.00;100800.50;685634;28;1652;-55
2023/06/29 00:43:26;;;;;;;8.15;4.20;;;;;;;17.94;100.00;100799.50;687596;28;4643;-57
2023/06/29 00:43:46;;;;;;;8.65;4.40;;;;;;;17.94;100.00;100799.50;689071;28;952;-57
2023/06/29 00:44:08;;;;;;;8.10;4.13;;;;;;;17.94;100.00;100799.50;691516;28;1456;-57
2023/06/29 00:44:28;;;;;;;6.70;4.38;;;;;;;17.91;100.00;100794.31;691737;28;1412;-56
2023/06/29 00:44:49;;;;;;;7.23;4.60;;;;;;;17.91;100.00;100799.63;692473;28;1044;-56
2023/06/29 00:45:10;;;;;;;6.63;4.50;;;;;;;17.90;100.00;100795.19;694198;28;1781;-55
2023/06/29 00:45:31;;;;;;;7.22;3.97;;;;;;;17.88;100.00;100799.69;693737;28;1411;-56
2023/06/29 00:45:51;;;;;;;6.47;3.90;;;;;;;17.86;100.00;100791.81;693206;28;1146;-57
2023/06/29 00:46:16;;;;;;;6.40;3.80;;;;;;;17.87;100.00;100800.59;691600;28;4460;-55
2023/06/29 00:46:36;;;;;;;7.30;4.30;;;;;;;17.87;100.00;100800.59;691004;28;897;-57
2023/06/29 00:46:56;;;;;;;7.67;4.37;;;;;;;17.85;100.00;100803.31;690970;28;823;-56
2023/06/29 00:47:18;;;;;;;7.43;4.35;;;;;;;17.84;100.00;100795.41;687916;28;1472;-55
2023/06/29 00:47:39;;;;;;;8.23;4.68;;;;;;;17.84;100.00;100798.91;687461;28;1358;-56
2023/06/29 00:48:00;;;;;;;7.00;4.30;;;;;;;17.84;100.00;100798.91;685224;28;1097;-56
2023/06/29 00:48:21;;;;;;;7.93;4.28;;;;;;;17.84;100.00;100798.91;684638;28;1592;-56
2023/06/29 00:48:42;;;;;;;7.03;4.18;;;;;;;17.83;100.00;100798.97;684852;28;1510;-55
2023/06/29 00:49:02;;;;;;;7.17;4.13;;;;;;;17.81;100.00;100800.81;686966;28;1184;-57
2023/06/29 00:49:23;;;;;;;6.47;4.20;;;;;;;17.82;100.00;100802.53;687465;28;4566;-55
2023/06/29 00:49:43;;;;;;;5.93;4.00;;;;;;;17.81;100.00;100803.47;690394;28;820;-56
2023/06/29 00:50:05;;;;;;;7.07;4.20;;;;;;;17.82;100.00;100803.41;689828;28;1619;-57
2023/06/29 00:50:25;;;;;;;6.68;4.07;;;;;;;17.79;100.00;100797.34;693239;28;964;-56
2023/06/29 00:50:47;;;;;;;7.65;4.22;;;;;;;17.78;100.00;100801.78;690640;28;1539;-56
2023/06/29 00:51:08;;;;;;;7.47;4.20;;;;;;;17.78;100.00;100800.94;691293;28;1482;-56
2023/06/29 00:51:30;;;;;;;7.78;4.15;;;;;;;17.79;100.00;100802.63;691945;28;909;-56
2023/06/29 00:51:53;;;;;;;7.43;3.85;;;;;;;17.78;100.00;100798.28;691906;28;914;-54
2023/06/29 00:52:13;;;;;;;6.75;4.05;;;;;;;17.77;100.00;100796.53;687779;28;4572;-56
2023/06/29 00:52:34;;;;;;;7.97;4.88;;;;;;;17.76;100.00;100800.09;689475;28;1517;-56
2023/06/29 00:52:55;;;;;;;8.55;5.00;;;;;;;17.77;100.00;100805.31;693234;28;951;-55
2023/06/29 00:53:16;;;;;;;7.22;4.22;;;;;;;17.76;100.00;100794.81;691672;28;1558;-56
2023/06/29 00:53:37;;;;;;;6.63;4.20;;;;;;;17.76;100.00;100802.72;690576;28;939;-56
2023/06/29 00:53:58;;;;;;;6.80;4.20;;;;;;;17.77;100.00;100796.53;687829;28;1260;-56
2023/06/29 00:54:22;;;;;;;6.63;3.85;;;;;;;17.78;100.00;100803.56;689661;28;2223;-56
2023/06/29 00:54:43;;;;;;;6.72;4.00;;;;;;;17.76;100.00;100800.94;690658;28;863;-55
2023/06/29 00:55:04;;;;;;;7.63;4.32;;;;;;;17.75;100.00;100803.66;689358;28;1569;-57
2023/06/29 00:55:24;;;;;;;7.70;4.13;;;;;;;17.73;100.00;100800.19;689944;28;4520;-56
2023/06/29 00:55:46;;;;;;;8.00;4.32;;;;;;;17.70;100.00;100802.00;691510;28;1465;-56
2023/06/29 00:56:07;;;;;;;8.37;4.30;;;;;;;17.72;100.00;100801.09;688238;28;1718;-55
2023/06/29 00:56:30;;;;;;;7.65;4.25;;;;;;;17.71;100.00;100800.25;688083;28;1350;-55
2023/06/29 00:56:52;;;;;;;8.18;4.55;;;;;;;17.73;100.00;100802.84;685960;28;845;-56
2023/06/29 00:57:12;;;;;;;7.78;4.85;;;;;;;17.72;100.00;100801.97;685580;28;1781;-55
2023/06/29 00:57:34;;;;;;;6.28;4.30;;;;;;;17.73;100.00;100797.56;684713;28;1409;-56
2023/06/29 00:57:54;;;;;;;7.18;4.28;;;;;;;17.73;100.00;100798.41;684991;28;1309;-56
2023/06/29 00:58:15;;;;;;;7.57;4.30;;;;;;;17.74;100.00;100802.78;684657;28;4570;-55
2023/06/29 00:58:35;;;;;;;8.93;4.43;;;;;;;17.74;100.00;100801.94;689197;28;896;-56
2023/06/29 00:58:58;;;;;;;9.25;4.40;;;;;;;17.74;100.00;100799.28;690176;28;1637;-56
2023/06/29 00:59:19;;;;;;;8.48;4.40;;;;;;;17.73;100.00;100801.06;688957;28;1340;-57
2023/06/29 00:59:39;;;;;;;8.25;4.65;;;;;;;17.75;100.00;100798.34;693223;28;837;-55
2023/06/29 01:00:00;;;;;;;7.60;4.47;;;;;;;17.75;100.00;100798.34;693187;28;992;-56
2023/06/29 01:00:21;;;;;;;7.97;4.50;;;;;;;17.76;100.00;100794.81;691851;28;1508;-57
2023/06/29 01:00:41;;;;;;;7.07;4.05;;;;;;;17.76;100.00;100800.09;690853;28;868;-56
2023/06/29 01:01:01;;;;;;;6.53;4.03;;;;;;;17.77;100.00;100801.84;693134;28;1910;-56
2023/06/29 01:01:22;;;;;;;6.28;4.35;;;;;;;17.76;100.00;100795.66;688941;28;4588;-56
2023/06/29 01:01:43;;;;;;;7.80;4.27;;;;;;;17.76;100.00;100790.38;690340;28;1103;-56
2023/06/29 01:02:04;;;;;;;8.40;4.47;;;;;;;17.77;100.00;100796.53;688796;28;2477;-57
2023/06/29 01:02:25;;;;;;;6.90;4.18;;;;;;;17.77;100.00;100793.91;692878;28;1182;-57
2023/06/29 01:02:46;;;;;;;6.88;4.38;;;;;;;17.77;100.00;100799.19;687868;28;1349;-57
2023/06/29 01:03:09;;;;;;;6.45;4.30;;;;;;;17.77;100.00;100797.41;687176;28;1502;-56
2023/06/29 01:03:30;;;;;;;9.95;5.10;;;;;;;17.77;100.00;100793.91;688976;28;1366;-55
2023/06/29 01:03:51;;;;;;;7.90;4.30;;;;;;;17.78;100.00;100798.28;688334;28;1520;-56
2023/06/29 01:04:24;;;;;;;7.60;4.57;;;;;;;17.79;100.00;100797.34;687612;28;4755;-57
2023/06/29 01:04:48;;;;;;;7.75;4.20;;;;;;;17.79;100.00;100789.41;691566;28;1042;-56
2023/06/29 01:05:13;;;;;;;7.30;4.43;;;;;;;17.77;100.00;100801.84;690577;28;1290;-54
2023/06/29 01:05:34;;;;;;;8.05;4.40;;;;;;;17.78;100.00;100790.34;691571;28;1169;-56
2023/06/29 01:05:58;;;;;;;8.43;4.13;;;;;;;17.77;100.00;100791.25;690857;28;971;-56
2023/06/29 01:06:23;;;;;;;8.05;4.18;;;;;;;17.77;100.00;100792.09;691008;28;1768;-55
2023/06/29 01:07:00;;;;;;;8.85;4.55;;;;;;;17.78;100.00;100795.63;689127;28;1215;-57
2023/06/29 01:07:43;;;;;;;7.32;3.95;;;;;;;17.78;100.00;100796.50;688617;28;4360;-55
2023/06/29 01:08:11;;;;;;;6.88;4.20;;;;;;;17.77;100.00;100796.53;690301;28;1682;-54
2023/06/29 01:08:36;;;;;;;6.78;4.30;;;;;;;17.77;100.00;100796.53;690063;28;2177;-56
2023/06/29 01:09:04;;;;;;;6.82;4.20;;;;;;;17.78;100.00;100793.00;691243;28;1478;-56
2023/06/29 01:09:26;;;;;;;7.22;4.45;;;;;;;17.78;100.00;100796.50;691660;28;1125;-55
2023/06/29 01:09:47;;;;;;;7.47;4.57;;;;;;;17.78;100.00;100799.13;690852;28;979;-56
2023/06/29 01:10:14;;;;;;;7.82;4.28;;;;;;;17.78;100.00;100798.28;690068;28;4624;-56
2023/06/29 01:10:36;;;;;;;7.45;4.30;;;;;;;17.78;100.00;100804.41;695278;28;859;-56
2023/06/29 01:10:58;;;;;;;8.27;4.40;;;;;;;17.78;100.00;100804.41;693675;28;944;-57
2023/06/29 01:11:20;;;;;;;7.38;4.10;;;;;;;17.80;100.00;100796.44;692034;28;1460;-56
2023/06/29 01:11:41;;;;;;;7.80;4.10;;;;;;;17.78;100.00;100800.94;693084;28;1389;-54
2023/06/29 01:12:02;;;;;;;6.45;3.95;;;;;;;17.78;100.00;100800.94;695387;28;2046;-57
2023/06/29 01:12:23;;;;;;;5.78;3.67;;;;;;;17.78;100.00;100803.56;695177;28;1535;-55
2023/06/29 01:12:47;;;;;;;6.55;4.22;;;;;;;17.77;100.00;100796.53;694104;28;1449;-56
2023/06/29 01:13:08;;;;;;;7.18;4.45;;;;;;;17.77;100.00;100799.19;689990;28;4436;-56
2023/06/29 01:13:29;;;;;;;7.75;4.30;;;;;;;17.78;100.00;100795.63;691473;28;1318;-56
2023/06/29 01:13:53;;;;;;;8.52;4.47;;;;;;;17.80;100.00;100793.78;690224;28;842;-57
2023/06/29 01:14:15;;;;;;;7.03;4.20;;;;;;;17.79;100.00;100797.34;689041;28;1458;-56
2023/06/29 01:14:39;;;;;;;7.72;4.22;;;;;;;17.80;100.00;100793.78;688462;28;1195;-55
2023/06/29 01:15:00;;;;;;;7.82;4.40;;;;;;;17.81;100.00;100798.16;691782;28;1564;-56
2023/06/29 01:15:21;;;;;;;7.00;4.20;;;;;;;17.78;100.00;100796.50;692121;28;1646;-56
2023/06/29 01:15:42;;;;;;;6.05;3.95;;;;;;;17.78;100.00;100799.13;693194;28;1813;-55
2023/06/29 01:16:05;;;;;;;6.55;4.05;;;;;;;17.76;100.00;100798.31;692111;28;3403;-55
2023/06/29 01:16:25;;;;;;;8.23;4.50;;;;;;;17.74;100.00;100797.50;692909;28;4261;-56
2023/06/29 01:16:47;;;;;;;8.02;4.30;;;;;;;17.74;100.00;100794.00;693233;28;948;-56
2023/06/29 01:17:12;;;;;;;6.50;4.07;;;;;;;17.72;100.00;100793.16;691822;28;1475;-56
2023/06/29 01:17:34;;;;;;;7.20;4.63;;;;;;;17.72;100.00;100795.81;693467;28;844;-54
2023/06/29 01:17:58;;;;;;;6.55;4.07;;;;;;;17.70;100.00;100793.22;687280;28;1067;-55
2023/06/29 01:18:19;;;;;;;6.40;4.00;;;;;;;17.69;100.00;100797.66;683453;28;1624;-56
2023/06/29 01:18:46;;;;;;;7.72;4.30;;;;;;;17.67;100.00;100791.53;683046;28;944;-56
2023/06/29 01:19:11;;;;;;;6.68;4.40;;;;;;;17.66;100.00;100795.09;685459;28;4443;-57
2023/06/29 01:19:33;;;;;;;7.15;4.25;;;;;;;17.67;100.00;100794.19;688000;28;1094;-56
2023/06/29 01:19:55;;;;;;;7.72;4.55;;;;;;;17.66;100.00;100788.94;690085;28;1303;-57
2023/06/29 01:20:16;;;;;;;7.68;4.40;;;;;;;17.66;100.00;100791.59;688320;28;1477;-56
2023/06/29 01:20:37;;;;;;;6.80;4.43;;;;;;;17.66;100.00;100792.44;690802;28;964;-57
2023/06/29 01:20:59;;;;;;;7.18;4.20;;;;;;;17.66;100.00;100795.09;690230;28;1981;-57
2023/06/29 01:21:20;;;;;;;7.30;4.30;;;;;;;17.66;100.00;100794.25;685192;28;1610;-55
2023/06/29 01:21:54;;;;;;;6.63;4.50;;;;;;;17.66;100.00;100787.16;686982;28;1264;-57
2023/06/29 01:22:21;;;;;;;7.30;4.45;;;;;;;17.65;100.00;100788.09;690302;28;4431;-55
2023/06/29 01:22:55;;;;;;;6.88;4.30;;;;;;;17.65;100.00;100792.50;692219;28;801;-56
2023/06/29 01:23:36;;;;;;;7.25;4.40;;;;;;;17.66;100.00;100796.88;691216;28;1471;-56
2023/06/29 01:23:58;;;;;;;6.82;4.47;;;;;;;17.65;100.00;100788.09;691723;28;773;-56
2023/06/29 01:24:22;;;;;;;7.22;4.55;;;;;;;17.64;100.00;100786.38;692023;28;1014;-57
2023/06/29 01:24:45;;;;;;;6.93;4.72;;;;;;;17.64;100.00;100791.66;690607;28;1239;-55
2023/06/29 01:25:05;;;;;;;6.45;4.35;;;;;;;17.64;100.00;100790.75;688970;28;4415;-55
2023/06/29 01:25:26;;;;;;;8.30;4.45;;;;;;;17.63;100.00;100795.19;688381;28;1254;-56
2023/06/29 01:25:47;;;;;;;8.23;4.70;;;;;;;17.64;100.00;100786.38;693444;28;972;-56
2023/06/29 01:26:08;;;;;;;6.35;4.38;;;;;;;17.64;100.00;100789.00;686075;28;1641;-56
2023/06/29 01:26:29;;;;;;;6.30;4.20;;;;;;;17.64;100.00;100796.94;687043;28;801;-56
2023/06/29 01:26:50;;;;;;;6.97;4.25;;;;;;;17.65;100.00;100790.75;690169;28;816;-55
2023/06/29 01:27:14;;;;;;;6.35;4.10;;;;;;;17.64;100.00;100796.94;689376;28;1544;-56
2023/06/29 01:27:35;;;;;;;7.63;4.55;;;;;;;17.62;100.00;100790.81;689890;28;920;-56
2023/06/29 01:27:55;;;;;;;8.65;4.60;;;;;;;17.62;100.00;100797.91;691536;28;920;-54
2023/06/29 01:28:16;;;;;;;9.33;4.77;;;;;;;17.61;100.00;100790.88;691636;28;4579;-56
2023/06/29 01:28:38;;;;;;;9.40;4.60;;;;;;;17.61;100.00;100791.75;690034;28;1088;-56
2023/06/29 01:28:58;;;;;;;6.93;4.35;;;;;;;17.61;100.00;100793.50;691060;28;1019;-57
2023/06/29 01:29:24;;;;;;;7.40;4.63;;;;;;;17.63;100.00;100794.34;691109;28;1631;-56
2023/06/29 01:29:45;;;;;;;6.85;3.90;;;;;;;17.62;100.00;100795.25;688381;28;1450;-56
2023/06/29 01:30:09;;;;;;;7.07;4.03;;;;;;;17.61;100.00;100791.75;688787;28;1587;-55
2023/06/29 01:30:31;;;;;;;6.82;4.28;;;;;;;17.61;100.00;100785.59;688950;28;1194;-57
2023/06/29 01:30:51;;;;;;;7.68;4.40;;;;;;;17.61;100.00;100796.16;687200;28;1977;-56
2023/06/29 01:31:13;;;;;;;7.20;4.38;;;;;;;17.60;100.00;100800.59;687577;28;4418;-56
2023/06/29 01:31:33;;;;;;;7.93;4.28;;;;;;;17.60;100.00;100784.72;691370;28;1375;-56
2023/06/29 01:32:00;;;;;;;7.78;4.50;;;;;;;17.59;100.00;100793.56;690402;28;821;-56
2023/06/29 01:32:21;;;;;;;7.07;4.32;;;;;;;17.61;100.00;100791.75;685916;28;1629;-56
2023/06/29 01:32:41;;;;;;;7.05;4.20;;;;;;;17.60;100.00;100787.38;687850;28;789;-56
2023/06/29 01:33:02;;;;;;;7.57;3.90;;;;;;;17.60;100.00;100790.00;690005;28;1410;-57
2023/06/29 01:33:24;;;;;;;7.77;4.40;;;;;;;17.60;100.00;100789.13;689496;28;1619;-56
2023/06/29 01:33:45;;;;;;;7.70;4.30;;;;;;;17.60;100.00;100790.00;690049;28;1269;-56
2023/06/29 01:34:05;;;;;;;7.70;4.57;;;;;;;17.60;100.00;100790.00;691173;28;4775;-55
2023/06/29 01:34:28;;;;;;;6.55;4.40;;;;;;;17.61;100.00;100788.22;693227;28;1010;-55
2023/06/29 01:34:49;;;;;;;7.73;4.10;;;;;;;17.61;100.00;100786.47;692933;28;1783;-57
2023/06/29 01:35:09;;;;;;;7.87;4.33;;;;;;;17.61;100.00;100791.75;691823;28;1558;-55
2023/06/29 01:35:30;;;;;;;7.78;4.43;;;;;;;17.62;100.00;100788.16;692476;28;877;-55
2023/06/29 01:36:33;;;;;;;7.13;4.63;;;;;;;17.62;100.00;100795.25;689700;28;1167;-57
2023/06/29 01:37:01;;;;;;;7.07;4.40;;;;;;;17.62;100.00;100792.59;687135;28;1392;-57
2023/06/29 01:37:27;;;;;;;6.78;4.65;;;;;;;17.61;100.00;100786.47;685081;28;4467;-56
2023/06/29 01:37:59;;;;;;;7.25;4.53;;;;;;;17.61;100.00;100789.13;689336;28;1188;-56
2023/06/29 01:38:30;;;;;;;6.53;4.30;;;;;;;17.60;100.00;100782.09;694911;28;1606;-55
2023/06/29 01:39:01;;;;;;;6.80;4.47;;;;;;;17.60;100.00;100790.00;695841;28;991;-56
2023/06/29 01:39:27;;;;;;;6.88;4.47;;;;;;;17.61;100.00;100786.47;694224;28;1460;-57
2023/06/29 01:39:51;;;;;;;7.05;4.45;;;;;;;17.62;100.00;100782.88;695993;28;1252;-57
2023/06/29 01:40:16;;;;;;;7.38;4.60;;;;;;;17.60;100.00;100779.44;693810;28;4443;-54
2023/06/29 01:40:40;;;;;;;7.35;4.78;;;;;;;17.61;100.00;100786.47;696190;28;924;-57
2023/06/29 01:41:02;;;;;;;7.30;4.70;;;;;;;17.59;100.00;100777.72;695865;28;1973;-57
2023/06/29 01:41:25;;;;;;;7.68;4.57;;;;;;;17.64;100.00;100783.72;694808;28;1511;-57
2023/06/29 01:41:47;;;;;;;7.55;4.68;;;;;;;17.65;100.00;100777.53;696418;28;1026;-55
2023/06/29 01:42:10;;;;;;;8.25;4.80;;;;;;;17.66;100.00;100784.50;694228;28;5098;-55
2023/06/29 01:42:32;;;;;;;7.53;4.88;;;;;;;17.66;100.00;100776.59;696372;28;785;-56
2023/06/29 01:42:55;;;;;;;8.45;4.43;;;;;;;17.64;100.00;100778.44;696396;28;821;-56
2023/06/29 01:43:17;;;;;;;6.00;4.40;;;;;;;17.64;100.00;100783.72;692561;28;4766;-57
2023/06/29 01:43:37;;;;;;;8.32;4.40;;;;;;;17.65;100.00;100774.88;695941;28;848;-56
2023/06/29 01:44:02;;;;;;;7.13;4.20;;;;;;;17.67;100.00;100774.81;695870;28;995;-56
2023/06/29 01:44:23;;;;;;;7.88;4.50;;;;;;;17.66;100.00;100775.75;694666;28;1468;-56
2023/06/29 01:44:44;;;;;;;9.07;4.78;;;;;;;17.65;100.00;100774.88;696193;28;920;-56